createdAt,value
2023-03-10T00:00:42.482Z,2.19
2023-03-10T00:03:10.223Z,2.37
2023-03-10T00:05:38.875Z,2.14
2023-03-10T00:08:07.371Z,2.02
2023-03-10T00:10:35.045Z,2.24
2023-03-10T00:13:02.711Z,2.41
2023-03-10T00:15:31.606Z,2.21
2023-03-10T00:18:00.677Z,2.20
2023-03-10T00:20:28.422Z,2.29
2023-03-10T00:22:56.130Z,2.30
2023-03-10T00:25:24.012Z,2.44
2023-03-10T00:27:52.534Z,2.54
2023-03-10T00:30:20.443Z,2.61
2023-03-10T00:32:48.101Z,2.66
2023-03-10T00:35:17.283Z,2.67
2023-03-10T00:37:44.956Z,2.55
2023-03-10T00:40:14.332Z,2.56
2023-03-10T00:42:42.651Z,2.46
2023-03-10T00:45:11.094Z,2.46
2023-03-10T00:47:38.820Z,2.44
2023-03-10T00:50:07.190Z,2.41
2023-03-10T00:52:36.233Z,2.39
2023-03-10T00:55:04.419Z,2.46
2023-03-10T00:57:32.145Z,2.25
2023-03-10T00:59:59.776Z,2.26
2023-03-10T01:02:29.054Z,2.23
2023-03-10T01:04:56.768Z,2.37
2023-03-10T01:07:24.551Z,2.23
2023-03-10T01:09:53.513Z,2.35
2023-03-10T01:12:21.818Z,2.15
2023-03-10T01:14:49.474Z,2.21
2023-03-10T01:17:17.159Z,2.17
2023-03-10T01:19:45.021Z,1.99
2023-03-10T01:22:12.729Z,2.07
2023-03-10T01:24:40.463Z,2.12
2023-03-10T01:27:09.596Z,2.04
2023-03-10T01:29:37.209Z,1.98
2023-03-10T01:32:05.113Z,2.08
2023-03-10T01:34:32.925Z,2.13
2023-03-10T01:37:00.708Z,1.95
2023-03-10T01:39:28.318Z,2.08
2023-03-10T01:41:56.034Z,2.07
2023-03-10T01:44:25.014Z,2.07
2023-03-10T01:46:54.305Z,2.05
2023-03-10T01:49:34.166Z,2.12
2023-03-10T01:52:06.309Z,1.94
2023-03-10T01:54:41.819Z,2.06
2023-03-10T01:57:10.152Z,2.19
2023-03-10T01:59:41.506Z,2.09
2023-03-10T02:02:10.444Z,2.11
2023-03-10T02:04:43.634Z,2.26
2023-03-10T02:07:12.960Z,2.40
2023-03-10T02:09:45.013Z,2.48
2023-03-10T02:12:15.087Z,2.30
2023-03-10T02:14:45.734Z,2.41
2023-03-10T02:17:17.910Z,2.47
2023-03-10T02:20:03.252Z,2.54
2023-03-10T02:22:32.766Z,2.58
2023-03-10T02:25:08.525Z,2.60
2023-03-10T02:27:39.222Z,2.62
2023-03-10T02:30:10.438Z,2.59
2023-03-10T02:32:43.019Z,2.66
2023-03-10T02:35:12.365Z,2.66
2023-03-10T02:37:40.389Z,2.63
2023-03-10T02:40:29.677Z,2.66
2023-03-10T02:42:59.918Z,2.71
2023-03-10T02:45:30.190Z,2.61
2023-03-10T02:47:59.108Z,2.39
2023-03-10T02:50:30.477Z,2.54
2023-03-10T02:53:04.484Z,2.54
2023-03-10T02:55:32.179Z,2.38
2023-03-10T02:58:02.443Z,2.50
2023-03-10T03:00:30.560Z,2.60
2023-03-10T03:02:58.391Z,2.63
2023-03-10T03:05:28.562Z,2.70
2023-03-10T03:07:56.446Z,2.76
2023-03-10T03:10:24.466Z,2.81
2023-03-10T03:12:52.534Z,2.75
2023-03-10T03:15:21.757Z,2.61
2023-03-10T03:17:49.507Z,2.67
2023-03-10T03:20:18.155Z,2.73
2023-03-10T03:22:46.787Z,2.79
2023-03-10T03:25:17.459Z,2.80
2023-03-10T03:27:45.771Z,2.82
2023-03-10T03:30:17.471Z,2.81
2023-03-10T03:32:47.036Z,2.82
2023-03-10T03:35:16.908Z,2.73
2023-03-10T03:37:45.092Z,2.73
2023-03-10T03:40:14.758Z,2.72
2023-03-10T03:42:43.717Z,2.75
2023-03-10T03:45:13.567Z,2.69
2023-03-10T03:47:41.787Z,2.69
2023-03-10T03:50:13.096Z,2.69
2023-03-10T03:52:41.215Z,2.60
2023-03-10T03:55:10.440Z,2.60
2023-03-10T03:57:38.472Z,2.71
2023-03-10T04:00:08.797Z,2.61
2023-03-10T04:02:36.965Z,2.67
2023-03-10T04:05:05.643Z,2.63
2023-03-10T04:07:35.363Z,2.66
2023-03-10T04:10:03.139Z,2.62
2023-03-10T04:12:31.352Z,2.60
2023-03-10T04:14:59.259Z,2.51
2023-03-10T04:17:27.055Z,2.52
2023-03-10T04:20:06.650Z,2.63
2023-03-10T04:22:39.514Z,2.62
2023-03-10T04:25:08.507Z,2.57
2023-03-10T04:27:36.568Z,2.43
2023-03-10T04:30:05.190Z,2.53
2023-03-10T04:32:33.263Z,2.47
2023-03-10T04:35:02.076Z,2.61
2023-03-10T04:37:29.890Z,2.60
2023-03-10T04:39:59.187Z,2.61
2023-03-10T04:42:28.117Z,2.59
2023-03-10T04:44:55.906Z,2.64
2023-03-10T04:47:23.559Z,2.52
2023-03-10T04:49:51.429Z,2.65
2023-03-10T04:52:19.193Z,2.72
2023-03-10T04:54:46.892Z,2.71
2023-03-10T04:57:16.259Z,2.62
2023-03-10T04:59:43.879Z,2.68
2023-03-10T05:02:11.683Z,2.61
2023-03-10T05:04:39.504Z,2.65
2023-03-10T05:07:08.365Z,2.72
2023-03-10T05:09:37.702Z,2.79
2023-03-10T05:12:06.611Z,2.81
2023-03-10T05:14:35.644Z,2.90
2023-03-10T05:17:03.893Z,2.95
2023-03-10T05:19:31.644Z,3.01
2023-03-10T05:21:59.534Z,3.00
2023-03-10T05:24:27.315Z,2.98
2023-03-10T05:26:55.071Z,2.91
2023-03-10T05:29:22.964Z,2.90
2023-03-10T05:31:51.924Z,2.88
2023-03-10T05:34:19.630Z,2.89
2023-03-10T05:36:47.379Z,2.86
2023-03-10T05:39:15.275Z,2.83
2023-03-10T05:41:43.363Z,2.79
2023-03-10T05:44:11.252Z,2.79
2023-03-10T05:46:39.180Z,2.80
2023-03-10T05:49:08.289Z,2.81
2023-03-10T05:51:36.123Z,2.81
2023-03-10T05:54:08.244Z,2.83
2023-03-10T05:56:38.392Z,2.78
2023-03-10T05:59:07.833Z,2.76
2023-03-10T06:01:36.351Z,2.74
2023-03-10T06:04:04.455Z,2.74
2023-03-10T06:06:33.613Z,2.74
2023-03-10T06:09:01.723Z,2.72
2023-03-10T06:11:30.532Z,2.74
2023-03-10T06:13:58.173Z,2.80
2023-03-10T06:16:27.250Z,2.81
2023-03-10T06:18:56.236Z,2.79
2023-03-10T06:21:25.100Z,2.79
2023-03-10T06:23:54.161Z,2.75
2023-03-10T06:26:22.789Z,2.73
2023-03-10T06:28:50.550Z,2.77
2023-03-10T06:31:21.497Z,2.81
2023-03-10T06:33:49.397Z,2.75
2023-03-10T06:36:20.640Z,2.73
2023-03-10T06:38:48.799Z,2.74
2023-03-10T06:41:18.381Z,2.75
2023-03-10T06:43:46.068Z,2.71
2023-03-10T06:46:14.614Z,2.72
2023-03-10T06:48:43.742Z,2.71
2023-03-10T06:51:14.076Z,2.74
2023-03-10T06:53:42.110Z,2.73
2023-03-10T06:56:12.973Z,2.73
2023-03-10T06:58:42.822Z,2.69
2023-03-10T07:01:22.148Z,2.74
2023-03-10T07:03:50.310Z,2.79
2023-03-10T07:06:20.747Z,2.85
2023-03-10T07:08:49.013Z,2.82
2023-03-10T07:11:17.073Z,2.82
2023-03-10T07:13:46.009Z,2.78
2023-03-10T07:16:13.754Z,2.76
2023-03-10T07:18:42.666Z,2.79
2023-03-10T07:21:11.457Z,2.77
2023-03-10T07:23:40.286Z,2.81
2023-03-10T07:26:09.029Z,2.86
2023-03-10T07:28:38.597Z,2.97
2023-03-10T07:31:10.988Z,2.96
2023-03-10T07:33:39.074Z,2.95
2023-03-10T07:36:08.431Z,3.01
2023-03-10T07:38:36.205Z,2.94
2023-03-10T07:41:07.568Z,3.04
2023-03-10T07:43:35.569Z,3.14
2023-03-10T07:46:07.401Z,3.31
2023-03-10T07:48:36.325Z,3.30
2023-03-10T07:51:04.302Z,3.16
2023-03-10T07:53:33.133Z,3.07
2023-03-10T07:56:00.974Z,3.08
2023-03-10T07:58:28.652Z,3.06
2023-03-10T08:00:57.085Z,2.99
2023-03-10T08:03:26.974Z,2.97
2023-03-10T08:05:54.872Z,2.94
2023-03-10T08:08:23.119Z,2.96
2023-03-10T08:10:50.814Z,2.88
2023-03-10T08:13:18.515Z,2.84
2023-03-10T08:15:46.176Z,2.84
2023-03-10T08:18:13.914Z,2.86
2023-03-10T08:20:43.242Z,2.96
2023-03-10T08:23:10.956Z,2.99
2023-03-10T08:25:39.041Z,2.98
2023-03-10T08:28:06.845Z,3.03
2023-03-10T08:30:35.376Z,3.10
2023-03-10T08:33:03.080Z,3.16
2023-03-10T08:35:30.777Z,3.16
2023-03-10T08:37:59.745Z,3.14
2023-03-10T08:40:28.431Z,3.12
2023-03-10T08:42:56.100Z,3.16
2023-03-10T08:45:24.057Z,3.11
2023-03-10T08:47:52.072Z,3.11
2023-03-10T08:50:19.885Z,3.21
2023-03-10T08:52:47.716Z,3.33
2023-03-10T08:55:19.436Z,3.50
2023-03-10T08:57:47.431Z,3.49
2023-03-10T09:00:17.438Z,3.38
2023-03-10T09:02:45.361Z,3.27
2023-03-10T09:05:13.032Z,3.27
2023-03-10T09:07:41.384Z,3.26
2023-03-10T09:10:11.360Z,3.22
2023-03-10T09:12:43.157Z,3.19
2023-03-10T09:15:12.693Z,3.23
2023-03-10T09:17:41.118Z,3.28
2023-03-10T09:20:10.671Z,3.39
2023-03-10T09:22:39.190Z,3.43
2023-03-10T09:25:07.519Z,3.52
2023-03-10T09:27:35.198Z,3.61
2023-03-10T09:30:07.077Z,3.69
2023-03-10T09:32:34.767Z,3.65
2023-03-10T09:35:02.407Z,3.55
2023-03-10T09:37:30.153Z,3.48
2023-03-10T09:39:57.737Z,3.39
2023-03-10T09:42:41.261Z,3.33
2023-03-10T09:45:22.574Z,3.30
2023-03-10T09:48:00.219Z,3.29
2023-03-10T09:50:34.875Z,3.39
2023-03-10T09:53:08.816Z,3.50
2023-03-10T09:55:47.494Z,3.64
2023-03-10T09:58:22.079Z,3.75
2023-03-10T10:00:51.188Z,3.82
2023-03-10T10:03:22.431Z,3.75
2023-03-10T10:05:53.190Z,3.70
2023-03-10T10:08:25.219Z,3.68
2023-03-10T10:10:55.877Z,3.68
2023-03-10T10:13:26.363Z,3.70
2023-03-10T10:16:21.405Z,3.72
2023-03-10T10:18:58.766Z,3.73
2023-03-10T10:21:42.366Z,3.70
2023-03-10T10:24:11.276Z,3.66
2023-03-10T10:26:40.296Z,3.65
2023-03-10T10:29:16.455Z,3.60
2023-03-10T10:32:03.269Z,3.66
2023-03-10T10:34:32.117Z,3.72
2023-03-10T10:37:01.060Z,3.69
2023-03-10T10:39:32.916Z,3.70
2023-03-10T10:42:13.979Z,3.66
2023-03-10T10:44:43.230Z,3.72
2023-03-10T10:47:27.325Z,3.66
2023-03-10T10:49:56.520Z,3.59
2023-03-10T10:52:26.634Z,3.57
2023-03-10T10:54:58.734Z,3.60
2023-03-10T10:57:31.277Z,3.66
2023-03-10T11:00:18.356Z,3.73
2023-03-10T11:02:47.497Z,3.75
2023-03-10T11:05:17.226Z,3.73
2023-03-10T11:07:45.172Z,3.69
2023-03-10T11:10:15.793Z,3.72
2023-03-10T11:12:57.542Z,3.76
2023-03-10T11:15:31.600Z,3.83
2023-03-10T11:18:07.405Z,3.89
2023-03-10T11:20:52.364Z,3.82
2023-03-10T11:23:25.542Z,3.80
2023-03-10T11:26:00.095Z,3.81
2023-03-10T11:28:41.757Z,3.81
2023-03-10T11:31:21.699Z,3.87
2023-03-10T11:33:57.587Z,3.84
2023-03-10T11:36:43.283Z,3.69
2023-03-10T11:39:25.588Z,3.64
2023-03-10T11:42:00.386Z,3.60
2023-03-10T11:44:36.278Z,3.53
2023-03-10T11:47:09.601Z,3.57
2023-03-10T11:49:43.556Z,3.62
2023-03-10T11:52:14.770Z,3.62
2023-03-10T11:54:46.080Z,3.67
2023-03-10T11:57:17.984Z,3.71
2023-03-10T11:59:50.633Z,3.71
2023-03-10T12:02:25.046Z,3.74
2023-03-10T12:05:00.063Z,3.74
2023-03-10T12:07:34.197Z,3.75
2023-03-10T12:10:05.070Z,3.76
2023-03-10T12:12:37.093Z,3.79
2023-03-10T12:15:12.402Z,3.86
2023-03-10T12:17:41.687Z,3.81
2023-03-10T12:20:25.680Z,3.76
2023-03-10T12:22:54.547Z,3.71
2023-03-10T12:25:43.841Z,3.73
2023-03-10T12:28:24.214Z,3.75
2023-03-10T12:30:56.421Z,3.82
2023-03-10T12:33:47.519Z,3.92
2023-03-10T12:36:27.237Z,3.96
2023-03-10T12:38:57.481Z,3.98
2023-03-10T12:41:49.438Z,4.00
2023-03-10T12:44:38.831Z,4.04
2023-03-10T12:47:32.219Z,4.20
2023-03-10T12:50:08.095Z,4.32
2023-03-10T12:52:51.241Z,4.30
2023-03-10T12:55:22.499Z,4.34
2023-03-10T12:57:57.609Z,4.41
2023-03-10T13:00:40.584Z,4.43
2023-03-10T13:03:19.437Z,4.45
2023-03-10T13:06:06.851Z,4.40
2023-03-10T13:08:43.403Z,4.43
2023-03-10T13:11:27.549Z,4.40
2023-03-10T13:13:59.353Z,4.39
2023-03-10T13:16:27.054Z,4.14
2023-03-10T13:18:56.681Z,4.13
2023-03-10T13:21:29.480Z,4.23
2023-03-10T13:23:59.288Z,4.28
2023-03-10T13:26:28.513Z,4.36
2023-03-10T13:28:58.522Z,4.36
2023-03-10T13:31:28.502Z,4.37
2023-03-10T13:33:57.761Z,4.36
2023-03-10T13:36:33.971Z,4.35
2023-03-10T13:39:05.693Z,4.38
2023-03-10T13:41:37.360Z,3.96
2023-03-10T13:44:06.647Z,4.03
2023-03-10T13:46:35.416Z,4.19
2023-03-10T13:49:06.887Z,4.20
2023-03-10T13:51:36.717Z,4.26
2023-03-10T13:54:21.546Z,4.26
2023-03-10T13:56:51.842Z,4.27
2023-03-10T13:59:23.851Z,4.27
2023-03-10T14:01:55.361Z,4.22
2023-03-10T14:04:45.249Z,4.22
2023-03-10T14:07:18.123Z,4.27
2023-03-10T14:09:49.076Z,4.31
2023-03-10T14:12:37.258Z,4.37
2023-03-10T14:15:21.542Z,4.40
2023-03-10T14:17:50.835Z,4.32
2023-03-10T14:20:27.314Z,4.24
2023-03-10T14:22:55.006Z,4.20
2023-03-10T14:25:25.770Z,4.08
2023-03-10T14:27:56.901Z,4.03
2023-03-10T14:30:30.280Z,4.00
2023-03-10T14:32:59.976Z,3.98
2023-03-10T14:35:30.184Z,4.01
2023-03-10T14:37:59.758Z,4.04
2023-03-10T14:40:28.982Z,3.96
2023-03-10T14:43:00.327Z,3.80
2023-03-10T14:45:31.184Z,3.79
2023-03-10T14:48:01.441Z,3.88
2023-03-10T14:50:30.406Z,3.89
2023-03-10T14:52:58.147Z,3.88
2023-03-10T14:55:26.014Z,3.87
2023-03-10T14:57:59.595Z,3.79
2023-03-10T15:00:30.933Z,3.76
2023-03-10T15:02:58.876Z,3.62
2023-03-10T15:05:45.077Z,3.62
2023-03-10T15:08:15.346Z,3.64
2023-03-10T15:10:46.728Z,3.66
2023-03-10T15:13:18.227Z,3.78
2023-03-10T15:15:47.745Z,3.92
2023-03-10T15:18:17.975Z,3.98
2023-03-10T15:20:45.994Z,4.04
2023-03-10T15:23:17.566Z,4.04
2023-03-10T15:25:46.916Z,4.03
2023-03-10T15:28:16.164Z,4.00
2023-03-10T15:30:43.822Z,4.01
2023-03-10T15:33:11.646Z,4.09
2023-03-10T15:35:40.524Z,4.09
2023-03-10T15:38:08.868Z,4.11
2023-03-10T15:40:38.705Z,4.10
2023-03-10T15:43:06.462Z,4.14
2023-03-10T15:45:40.750Z,4.13
2023-03-10T15:48:08.730Z,4.19
2023-03-10T15:50:36.699Z,4.14
2023-03-10T15:53:04.699Z,3.87
2023-03-10T15:55:32.499Z,3.95
2023-03-10T15:58:02.246Z,3.99
2023-03-10T16:00:30.044Z,4.05
2023-03-10T16:02:59.039Z,4.17
2023-03-10T16:05:28.997Z,4.23
2023-03-10T16:07:59.271Z,4.17
2023-03-10T16:10:26.950Z,4.42
2023-03-10T16:12:54.639Z,4.67
2023-03-10T16:15:22.272Z,4.76
2023-03-10T16:17:49.889Z,4.66
2023-03-10T16:20:19.446Z,4.93
2023-03-10T16:22:47.279Z,4.89
2023-03-10T16:25:16.899Z,4.79
2023-03-10T16:27:46.559Z,4.75
2023-03-10T16:30:16.804Z,4.70
2023-03-10T16:32:45.953Z,4.52
2023-03-10T16:35:14.033Z,4.51
2023-03-10T16:37:43.451Z,4.50
2023-03-10T16:40:12.355Z,4.63
2023-03-10T16:42:43.340Z,4.63
2023-03-10T16:45:12.054Z,4.54
2023-03-10T16:47:41.022Z,4.53
2023-03-10T16:50:12.633Z,4.41
2023-03-10T16:52:42.150Z,4.45
2023-03-10T16:55:16.916Z,4.47
2023-03-10T16:57:48.526Z,4.45
2023-03-10T17:00:20.982Z,4.44
2023-03-10T17:02:48.889Z,4.33
2023-03-10T17:05:17.223Z,4.22
2023-03-10T17:07:55.104Z,4.21
2023-03-10T17:10:26.653Z,4.20
2023-03-10T17:12:54.389Z,4.23
2023-03-10T17:15:22.045Z,4.09
2023-03-10T17:17:49.664Z,4.05
2023-03-10T17:20:19.347Z,4.04
2023-03-10T17:22:48.335Z,4.07
2023-03-10T17:25:16.002Z,4.15
2023-03-10T17:27:45.185Z,4.24
2023-03-10T17:30:15.600Z,4.16
2023-03-10T17:32:43.579Z,4.04
2023-03-10T17:35:11.355Z,3.98
2023-03-10T17:37:39.039Z,3.99
2023-03-10T17:40:09.373Z,3.84
2023-03-10T17:42:37.210Z,3.80
2023-03-10T17:45:07.671Z,3.73
2023-03-10T17:47:35.510Z,3.69
2023-03-10T17:50:03.201Z,3.55
2023-03-10T17:52:31.032Z,3.48
2023-03-10T17:54:58.666Z,3.48
2023-03-10T17:57:26.342Z,3.45
2023-03-10T17:59:53.997Z,3.42
2023-03-10T18:02:23.079Z,3.44
2023-03-10T18:04:50.729Z,3.42
2023-03-10T18:07:18.326Z,3.25
2023-03-10T18:09:45.989Z,3.21
2023-03-10T18:12:13.620Z,3.18
2023-03-10T18:14:41.308Z,3.04
2023-03-10T18:17:09.181Z,3.05
2023-03-10T18:19:38.621Z,3.00
2023-03-10T18:22:08.032Z,2.95
2023-03-10T18:24:35.810Z,2.86
2023-03-10T18:27:04.326Z,2.88
2023-03-10T18:29:31.932Z,2.86
2023-03-10T18:31:59.655Z,2.76
2023-03-10T18:34:27.941Z,2.75
2023-03-10T18:36:57.545Z,2.80
2023-03-10T18:39:25.782Z,2.79
2023-03-10T18:41:54.709Z,2.81
2023-03-10T18:44:23.096Z,2.84
2023-03-10T18:46:50.990Z,2.75
2023-03-10T18:49:18.711Z,2.70
2023-03-10T18:51:46.460Z,2.71
2023-03-10T18:54:15.352Z,2.73
2023-03-10T18:56:43.073Z,2.65
2023-03-10T18:59:11.195Z,2.56
2023-03-10T19:01:39.221Z,2.58
2023-03-10T19:04:06.979Z,2.57
2023-03-10T19:06:35.388Z,2.55
2023-03-10T19:09:03.993Z,2.49
2023-03-10T19:11:37.898Z,2.41
2023-03-10T19:14:07.452Z,2.42
2023-03-10T19:16:36.659Z,2.42
2023-03-10T19:19:04.428Z,2.49
2023-03-10T19:21:32.227Z,2.42
2023-03-10T19:23:59.862Z,2.40
2023-03-10T19:26:27.626Z,2.46
2023-03-10T19:28:56.636Z,2.53
2023-03-10T19:31:25.563Z,2.52
2023-03-10T19:33:53.995Z,2.60
2023-03-10T19:36:21.744Z,2.72
2023-03-10T19:38:49.962Z,2.54
2023-03-10T19:41:21.891Z,2.37
2023-03-10T19:43:50.626Z,2.40
2023-03-10T19:46:20.451Z,2.37
2023-03-10T19:48:48.649Z,2.32
2023-03-10T19:51:21.935Z,2.32
2023-03-10T19:53:51.069Z,2.23
2023-03-10T19:56:19.541Z,2.20
2023-03-10T19:58:48.482Z,2.23
2023-03-10T20:01:18.255Z,2.27
2023-03-10T20:03:47.591Z,2.15
2023-03-10T20:06:15.373Z,2.18
2023-03-10T20:08:43.536Z,2.09
2023-03-10T20:11:13.493Z,1.95
2023-03-10T20:13:43.206Z,2.00
2023-03-10T20:16:13.988Z,1.94
2023-03-10T20:18:42.208Z,1.91
2023-03-10T20:21:11.494Z,1.91
2023-03-10T20:23:39.447Z,1.82
2023-03-10T20:26:08.828Z,1.75
2023-03-10T20:28:39.285Z,1.72
2023-03-10T20:31:06.941Z,1.69
2023-03-10T20:33:35.486Z,1.53
2023-03-10T20:36:03.188Z,1.57
2023-03-10T20:38:32.203Z,1.53
2023-03-10T20:40:59.816Z,1.55
2023-03-10T20:43:28.118Z,1.52
2023-03-10T20:45:55.817Z,1.40
2023-03-10T20:48:23.652Z,1.43
2023-03-10T20:50:55.042Z,1.48
2023-03-10T20:53:23.986Z,1.46
2023-03-10T20:55:53.350Z,1.25
2023-03-10T20:58:21.852Z,1.25
2023-03-10T21:00:49.783Z,1.30
2023-03-10T21:03:22.790Z,1.30
2023-03-10T21:05:50.938Z,1.27
2023-03-10T21:08:19.413Z,1.21
2023-03-10T21:10:49.242Z,1.12
2023-03-10T21:13:18.628Z,1.13
2023-03-10T21:15:46.292Z,1.08
2023-03-10T21:18:13.936Z,1.08
2023-03-10T21:20:45.419Z,1.08
2023-03-10T21:23:13.301Z,1.10
2023-03-10T21:25:41.400Z,1.18
2023-03-10T21:28:09.509Z,1.16
2023-03-10T21:30:38.751Z,1.11
2023-03-10T21:33:06.479Z,1.08
2023-03-10T21:35:37.075Z,1.10
2023-03-10T21:38:05.435Z,1.13
2023-03-10T21:40:33.279Z,1.24
2023-03-10T21:43:02.752Z,1.23
2023-03-10T21:45:33.348Z,1.19
2023-03-10T21:48:03.958Z,1.05
2023-03-10T21:50:31.830Z,1.06
2023-03-10T21:52:59.754Z,1.09
2023-03-10T21:55:29.335Z,1.02
2023-03-10T21:57:56.962Z,0.98
2023-03-10T22:00:24.801Z,1.02
2023-03-10T22:02:53.779Z,0.97
2023-03-10T22:05:23.120Z,0.96
2023-03-10T22:07:51.623Z,0.96
2023-03-10T22:10:19.572Z,0.99
2023-03-10T22:12:51.255Z,0.97
2023-03-10T22:15:21.957Z,0.91
2023-03-10T22:17:50.263Z,0.97
2023-03-10T22:20:20.593Z,1.05
2023-03-10T22:22:49.851Z,1.07
2023-03-10T22:25:18.445Z,1.01
2023-03-10T22:27:49.963Z,1.00
2023-03-10T22:30:18.568Z,1.07
2023-03-10T22:32:46.425Z,1.14
2023-03-10T22:35:14.261Z,1.10
2023-03-10T22:37:42.882Z,1.11
2023-03-10T22:40:16.113Z,1.07
2023-03-10T22:42:44.772Z,1.07
2023-03-10T22:45:18.320Z,1.09
2023-03-10T22:47:46.233Z,1.14
2023-03-10T22:50:16.019Z,1.07
2023-03-10T22:52:43.913Z,1.11
2023-03-10T22:55:16.224Z,1.14
2023-03-10T22:57:44.186Z,1.13
2023-03-10T23:00:20.242Z,1.28
2023-03-10T23:02:49.369Z,1.26
2023-03-10T23:05:18.115Z,1.30
2023-03-10T23:07:48.554Z,1.26
2023-03-10T23:10:20.287Z,1.28
2023-03-10T23:12:49.141Z,1.39
2023-03-10T23:15:24.806Z,1.36
2023-03-10T23:17:53.800Z,1.36
2023-03-10T23:20:23.917Z,1.38
2023-03-10T23:22:51.633Z,1.31
2023-03-10T23:25:26.573Z,1.33
2023-03-10T23:27:56.104Z,1.38
2023-03-10T23:30:26.065Z,1.36
2023-03-10T23:32:55.469Z,1.33
2023-03-10T23:35:26.621Z,1.41
2023-03-10T23:37:56.423Z,1.44
2023-03-10T23:40:28.784Z,1.48
2023-03-10T23:42:58.608Z,1.48
2023-03-10T23:45:31.181Z,1.43
2023-03-10T23:48:01.371Z,1.43
2023-03-10T23:50:33.787Z,1.35
2023-03-10T23:53:02.336Z,1.28
2023-03-10T23:55:33.997Z,1.39
2023-03-10T23:58:02.161Z,1.43
